Time;durP1;ratioP1;P1;durP2;ratioP2;P2;SDS_P1;SDS_P2;PMS_P1;PMS_P2;Temp;Humidity;BMP_temperature;BMP_pressure;BME280_temperature;BME280_humidity;BME280_pressure;Samples;Min_cycle;Max_cycle;Signal;HPM_P1;HPM_P2
2023/05/01 00:01:47;;;;;;;9.00;3.80;;;;;;;10.56;82.01;94587.94;5046523;28;20235;-75
2023/05/01 00:04:15;;;;;;;4.15;3.38;;;;;;;10.56;82.19;94593.38;5044469;28;20796;-74
2023/05/01 00:06:42;;;;;;;4.80;3.70;;;;;;;10.48;82.38;94596.94;5056780;28;20277;-75
2023/05/01 00:09:09;;;;;;;4.70;3.65;;;;;;;10.48;82.46;94596.13;5044347;28;20214;-74
2023/05/01 00:11:36;;;;;;;5.53;3.70;;;;;;;10.44;82.67;94593.28;5051870;28;20230;-75
2023/05/01 00:14:03;;;;;;;4.80;3.67;;;;;;;10.40;83.32;94584.22;5055442;28;20670;-75
2023/05/01 00:16:30;;;;;;;8.07;4.20;;;;;;;10.35;83.69;94595.25;5060885;28;20573;-75
2023/05/01 00:18:58;;;;;;;5.43;4.10;;;;;;;10.27;84.33;94601.47;5058950;28;20669;-75
2023/05/01 00:21:25;;;;;;;6.78;3.97;;;;;;;10.21;84.55;94600.09;5053742;28;20260;-76
2023/05/01 00:23:51;;;;;;;5.25;3.80;;;;;;;10.13;84.86;94595.47;5054742;28;20207;-74
2023/05/01 00:26:18;;;;;;;6.18;4.28;;;;;;;10.06;85.19;94589.78;5060723;28;20302;-75
2023/05/01 00:28:45;;;;;;;4.10;3.60;;;;;;;10.14;85.04;94597.84;5058444;28;20874;-74
2023/05/01 00:31:11;;;;;;;4.47;3.50;;;;;;;10.18;84.86;94600.72;5053214;28;20690;-75
2023/05/01 00:33:39;;;;;;;7.47;4.38;;;;;;;10.22;84.79;94599.78;5054741;28;20226;-75
2023/05/01 00:36:08;;;;;;;7.50;4.30;;;;;;;10.21;84.93;94597.38;5060198;28;20355;-74
2023/05/01 00:38:34;;;;;;;7.60;4.30;;;;;;;10.18;85.25;94600.72;5061434;28;20206;-75
2023/05/01 00:41:01;;;;;;;5.93;4.45;;;;;;;10.14;85.38;94605.19;5051183;28;20736;-75
2023/05/01 00:43:28;;;;;;;4.75;3.38;;;;;;;10.23;85.44;94605.97;5063601;28;20261;-76
2023/05/01 00:45:55;;;;;;;5.20;4.07;;;;;;;10.38;84.78;94600.03;5050354;28;20272;-75
2023/05/01 00:48:22;;;;;;;5.70;3.63;;;;;;;10.32;84.99;94604.81;5063372;28;20264;-75
2023/05/01 00:50:49;;;;;;;5.50;4.10;;;;;;;10.43;84.54;94610.66;5050830;28;20207;-75
2023/05/01 00:53:18;;;;;;;5.38;4.32;;;;;;;10.30;84.80;94609.75;5063760;28;20248;-75
2023/05/01 00:55:46;;;;;;;6.07;4.45;;;;;;;10.29;84.95;94610.06;5058271;28;20210;-75
2023/05/01 00:58:13;;;;;;;6.72;4.25;;;;;;;10.23;85.17;94611.41;5055837;28;20203;-75
2023/05/01 01:00:40;;;;;;;4.35;3.63;;;;;;;10.16;85.56;94632.72;5050608;28;20261;-75
2023/05/01 01:03:07;;;;;;;7.18;4.90;;;;;;;10.18;85.74;94622.38;5063260;28;20226;-75
2023/05/01 01:05:38;;;;;;;7.13;4.55;;;;;;;10.16;85.85;94619.19;5059049;28;20199;-75
2023/05/01 01:08:14;;;;;;;5.47;3.90;;;;;;;10.14;85.82;94624.13;5057032;28;20235;-75
2023/05/01 01:10:51;;;;;;;5.80;4.22;;;;;;;10.13;85.97;94622.53;5059780;28;20207;-75
2023/05/01 01:13:24;;;;;;;8.00;4.68;;;;;;;10.02;86.42;94624.00;5055341;28;20207;-74
2023/05/01 01:15:57;;;;;;;7.72;4.60;;;;;;;9.94;86.48;94629.13;5056516;28;20357;-74
2023/05/01 01:18:34;;;;;;;5.97;4.50;;;;;;;9.90;87.49;94628.19;5045126;28;20213;-75
2023/05/01 01:21:08;;;;;;;5.55;4.07;;;;;;;9.75;87.88;94634.13;5057134;28;20199;-74
2023/05/01 01:23:52;;;;;;;6.35;4.05;;;;;;;9.63;88.31;94631.28;5059202;28;20196;-74
2023/05/01 01:26:49;;;;;;;7.75;4.63;;;;;;;9.50;89.13;94633.06;5062954;28;20702;-74
2023/05/01 01:29:38;;;;;;;5.75;4.20;;;;;;;9.42;89.39;94638.47;5052839;28;20689;-75
2023/05/01 01:32:27;;;;;;;6.57;4.50;;;;;;;9.40;90.02;94640.69;5056205;28;20207;-75
2023/05/01 01:35:01;;;;;;;6.25;4.57;;;;;;;9.44;90.02;94638.94;5059217;28;20205;-74
2023/05/01 01:37:32;;;;;;;6.47;5.10;;;;;;;9.45;89.93;94651.34;5055816;28;20684;-74
2023/05/01 01:40:03;;;;;;;5.97;4.43;;;;;;;9.38;90.13;94645.63;5058051;28;20199;-75
2023/05/01 01:42:40;;;;;;;6.63;5.07;;;;;;;9.38;90.39;94656.44;5055036;28;20290;-74
2023/05/01 01:45:15;;;;;;;6.70;4.82;;;;;;;9.40;90.26;94643.41;5055982;28;20666;-74
2023/05/01 01:47:44;;;;;;;6.53;4.75;;;;;;;9.35;90.54;94644.34;5061198;28;20227;-74
2023/05/01 01:50:14;;;;;;;10.65;5.40;;;;;;;9.36;90.56;94648.66;5048697;28;20293;-75
2023/05/01 01:52:45;;;;;;;7.53;4.55;;;;;;;9.24;91.17;94645.78;5049342;28;20215;-74
2023/05/01 01:55:14;;;;;;;6.63;4.93;;;;;;;9.19;91.47;94640.53;5052568;28;20280;-74
2023/05/01 01:57:43;;;;;;;8.18;4.80;;;;;;;9.12;91.51;94643.72;5058563;28;20208;-74
2023/05/01 02:00:12;;;;;;;9.05;4.90;;;;;;;9.01;91.88;94626.25;5062503;28;20260;-75
2023/05/01 02:02:42;;;;;;;8.15;4.57;;;;;;;9.08;92.20;94642.75;5060246;28;20322;-74
2023/05/01 02:05:14;;;;;;;13.80;5.03;;;;;;;9.04;92.19;94635.59;5055489;28;20681;-74
2023/05/01 02:07:42;;;;;;;6.82;4.50;;;;;;;9.09;92.31;94636.25;5056297;28;20314;-74
2023/05/01 02:10:11;;;;;;;6.93;5.28;;;;;;;9.02;92.21;94633.22;5061750;28;20273;-74
2023/05/01 02:12:38;;;;;;;6.45;4.30;;;;;;;8.97;92.57;94636.09;5062201;28;20200;-74
2023/05/01 02:15:08;;;;;;;6.15;4.50;;;;;;;8.92;92.65;94633.53;5055801;28;20210;-74
2023/05/01 02:17:36;;;;;;;6.57;4.60;;;;;;;8.79;93.16;94619.06;5054949;28;20984;-74
2023/05/01 02:20:04;;;;;;;5.18;4.43;;;;;;;8.81;93.34;94632.25;5061295;28;20643;-74
2023/05/01 02:22:33;;;;;;;5.80;4.70;;;;;;;9.00;92.43;94629.25;5062440;28;20211;-74
2023/05/01 02:25:00;;;;;;;6.18;4.80;;;;;;;8.77;93.13;94634.00;5056580;28;20541;-74
2023/05/01 02:27:31;;;;;;;8.25;5.35;;;;;;;8.53;96.15;94640.63;5055661;28;20207;-74
2023/05/01 02:29:58;;;;;;;7.63;5.10;;;;;;;8.44;97.31;94629.03;5061489;28;20210;-75
2023/05/01 02:32:27;;;;;;;7.57;5.07;;;;;;;8.42;97.50;94642.03;5062042;28;20620;-74
2023/05/01 02:34:54;;;;;;;6.55;5.18;;;;;;;8.36;97.53;94632.47;5057807;28;20241;-75
2023/05/01 02:37:21;;;;;;;7.05;5.30;;;;;;;8.41;97.85;94624.25;5054864;28;20204;-75
2023/05/01 02:39:49;;;;;;;9.43;5.47;;;;;;;8.48;97.45;94635.34;5068388;28;20215;-75
2023/05/01 02:42:17;;;;;;;7.30;5.65;;;;;;;8.38;97.46;94643.75;5054997;28;20211;-74
2023/05/01 02:44:50;;;;;;;9.80;5.32;;;;;;;8.24;98.40;94637.63;5058144;28;20216;-74
2023/05/01 02:47:22;;;;;;;8.00;5.07;;;;;;;8.24;98.75;94640.34;5048063;28;20208;-74
2023/05/01 02:49:49;;;;;;;9.00;5.70;;;;;;;8.27;98.59;94639.72;5047761;28;20261;-74
2023/05/01 02:52:17;;;;;;;10.15;5.60;;;;;;;8.26;98.12;94643.53;5053833;28;20261;-75
2023/05/01 02:54:44;;;;;;;9.13;6.10;;;;;;;8.37;97.48;94636.75;5054981;28;20289;-74
2023/05/01 02:57:12;;;;;;;10.55;6.00;;;;;;;8.40;96.74;94644.25;5053915;28;20272;-74
2023/05/01 02:59:40;;;;;;;9.48;5.60;;;;;;;8.37;96.32;94644.84;5054607;28;20211;-74
2023/05/01 03:02:07;;;;;;;8.73;5.22;;;;;;;8.27;96.70;94642.41;5034150;28;20239;-74
2023/05/01 03:04:33;;;;;;;8.98;5.43;;;;;;;8.20;96.79;94644.75;5061127;28;20371;-74
2023/05/01 03:07:00;;;;;;;5.75;4.38;;;;;;;8.16;96.78;94644.63;5041715;28;20203;-74
2023/05/01 03:09:27;;;;;;;6.47;4.68;;;;;;;8.13;96.67;94636.34;5067510;28;20226;-74
2023/05/01 03:11:54;;;;;;;9.00;5.28;;;;;;;8.19;96.62;94654.00;5054921;28;20199;-75
2023/05/01 03:14:22;;;;;;;8.52;4.75;;;;;;;7.94;97.55;94646.56;5053741;28;20206;-74
2023/05/01 03:16:49;;;;;;;8.10;5.43;;;;;;;7.83;99.58;94652.22;5060346;28;20258;-75
2023/05/01 03:19:16;;;;;;;7.28;5.20;;;;;;;7.81;100.00;94654.44;5061550;28;20677;-74
2023/05/01 03:21:43;;;;;;;12.93;10.13;;;;;;;7.84;100.00;94653.81;5055222;28;20210;-74
2023/05/01 03:24:09;;;;;;;14.80;9.95;;;;;;;7.76;100.00;94651.88;5054153;28;20626;-72
2023/05/01 03:26:36;;;;;;;14.40;11.15;;;;;;;7.81;100.00;94657.13;5059678;28;20721;-74
2023/05/01 03:29:03;;;;;;;13.98;10.65;;;;;;;7.69;100.00;94646.13;5060778;28;20231;-73
2023/05/01 03:31:31;;;;;;;19.85;15.07;;;;;;;7.76;100.00;94659.97;5055411;28;20746;-73
2023/05/01 03:33:58;;;;;;;20.30;15.35;;;;;;;7.92;100.00;94673.06;5053491;28;20207;-73
2023/05/01 03:36:26;;;;;;;27.35;18.70;;;;;;;7.88;100.00;94664.00;5058356;28;20222;-74
2023/05/01 03:38:53;;;;;;;30.98;23.08;;;;;;;7.85;100.00;94671.59;5045276;28;20646;-74
2023/05/01 03:41:20;;;;;;;32.90;23.48;;;;;;;7.81;100.00;94659.81;5053247;28;20203;-74
2023/05/01 03:43:47;;;;;;;31.50;23.63;;;;;;;8.19;100.00;94672.88;5058935;28;20628;-75
2023/05/01 03:46:13;;;;;;;30.30;21.77;;;;;;;8.35;100.00;94679.47;5053196;28;20261;-74
2023/05/01 03:48:41;;;;;;;29.33;21.20;;;;;;;8.39;100.00;94680.44;5044808;28;20312;-74
2023/05/01 03:51:08;;;;;;;26.77;14.02;;;;;;;8.98;100.00;94683.59;5045684;28;20204;-76
2023/05/01 03:53:35;;;;;;;28.48;15.07;;;;;;;9.99;100.00;94682.28;5045044;28;20219;-74
2023/05/01 03:56:02;;;;;;;23.40;12.68;;;;;;;11.16;94.05;94678.13;5048180;28;20204;-73
2023/05/01 03:58:29;;;;;;;17.75;11.48;;;;;;;12.20;84.55;94676.09;5048376;28;20815;-73
2023/05/01 04:00:59;;;;;;;22.88;12.82;;;;;;;13.46;80.85;94669.63;5043372;28;20237;-75
2023/05/01 04:03:27;;;;;;;16.83;10.18;;;;;;;14.32;76.36;94674.72;5060391;28;20727;-75
2023/05/01 04:05:55;;;;;;;14.35;9.55;;;;;;;15.25;72.87;94667.66;5055516;28;20226;-75
2023/05/01 04:08:22;;;;;;;15.48;8.80;;;;;;;15.83;67.57;94663.06;5049468;28;20231;-73
2023/05/01 04:10:49;;;;;;;14.27;8.25;;;;;;;16.22;67.40;94661.09;5055114;28;20705;-74
2023/05/01 04:13:15;;;;;;;18.73;8.00;;;;;;;16.48;66.15;94659.59;5065200;28;20191;-74
2023/05/01 04:15:45;;;;;;;9.52;7.68;;;;;;;17.37;60.58;94653.59;5059060;28;20237;-73
2023/05/01 04:18:12;;;;;;;10.23;7.38;;;;;;;17.56;59.60;94656.22;5050987;28;20243;-74
2023/05/01 04:20:39;;;;;;;8.40;6.15;;;;;;;18.52;57.20;94660.13;5061300;28;20217;-74
2023/05/01 04:23:08;;;;;;;9.38;7.05;;;;;;;18.97;55.90;94656.25;5050609;28;20187;-74
2023/05/01 04:25:35;;;;;;;12.52;8.73;;;;;;;19.04;55.63;94659.03;5048515;28;20211;-74
2023/05/01 04:28:02;;;;;;;12.65;7.80;;;;;;;19.56;54.25;94648.81;5056342;28;20554;-74
2023/05/01 04:30:30;;;;;;;10.55;6.25;;;;;;;19.26;54.29;94651.75;5066813;28;20257;-74
2023/05/01 04:32:57;;;;;;;9.38;7.65;;;;;;;19.72;52.44;94649.28;5057197;28;20649;-75
2023/05/01 04:35:24;;;;;;;9.75;7.30;;;;;;;19.65;52.27;94649.28;5056922;28;20222;-74
2023/05/01 04:37:51;;;;;;;10.52;7.78;;;;;;;20.07;51.55;94656.13;5063594;28;20316;-75
2023/05/01 04:40:19;;;;;;;9.82;8.20;;;;;;;20.44;50.11;94653.91;5064004;28;20207;-75
2023/05/01 04:42:46;;;;;;;11.57;8.38;;;;;;;20.35;50.17;94649.94;5057738;28;20543;-75
2023/05/01 04:45:13;;;;;;;10.93;8.52;;;;;;;20.49;49.65;94656.28;5056441;28;20277;-75
2023/05/01 04:47:40;;;;;;;9.77;8.23;;;;;;;20.56;49.57;94655.50;5061211;28;20214;-74
2023/05/01 04:50:07;;;;;;;11.23;8.38;;;;;;;21.04;48.55;94650.44;5056299;28;20312;-75
2023/05/01 04:52:34;;;;;;;11.82;8.48;;;;;;;22.25;46.20;94652.97;5050638;28;20226;-75
2023/05/01 04:55:02;;;;;;;11.55;8.57;;;;;;;22.73;45.01;94649.53;5047700;28;20215;-74
2023/05/01 04:57:30;;;;;;;9.80;8.15;;;;;;;22.54;44.52;94659.94;5061066;28;20210;-74
2023/05/01 04:59:57;;;;;;;12.48;8.40;;;;;;;22.25;45.52;94655.75;5051589;28;20203;-74
2023/05/01 05:02:24;;;;;;;13.25;9.02;;;;;;;23.52;42.70;94656.06;5060876;28;20714;-74
2023/05/01 05:04:52;;;;;;;10.43;8.18;;;;;;;23.59;41.97;94661.53;5053252;28;20257;-74
2023/05/01 05:07:19;;;;;;;12.13;8.45;;;;;;;23.51;42.17;94662.78;5060534;28;20298;-74
2023/05/01 05:09:46;;;;;;;11.82;8.50;;;;;;;23.61;42.29;94664.69;5063145;28;20222;-74
2023/05/01 05:12:13;;;;;;;9.52;8.00;;;;;;;23.22;42.14;94679.63;5059158;28;20244;-74
2023/05/01 05:14:42;;;;;;;8.43;6.93;;;;;;;22.74;42.94;94676.75;5053431;28;20203;-73
2023/05/01 05:17:09;;;;;;;8.90;7.88;;;;;;;22.27;43.90;94680.97;5044856;28;20249;-73
2023/05/01 05:19:35;;;;;;;7.95;7.00;;;;;;;22.93;42.53;94675.50;5043814;28;20712;-73
2023/05/01 05:22:02;;;;;;;8.50;7.30;;;;;;;22.98;42.69;94688.84;5047011;28;20251;-74
2023/05/01 05:24:29;;;;;;;8.93;7.20;;;;;;;23.01;42.43;94688.06;5043049;28;20240;-75
2023/05/01 05:26:56;;;;;;;8.88;6.68;;;;;;;22.87;42.85;94696.44;5042461;28;20270;-75
2023/05/01 05:29:23;;;;;;;10.43;6.80;;;;;;;23.55;41.94;94693.97;5042841;28;20231;-71
2023/05/01 05:31:51;;;;;;;10.48;6.63;;;;;;;21.81;44.97;94700.38;5049749;28;20622;-73
2023/05/01 05:34:18;;;;;;;7.97;6.55;;;;;;;23.90;41.37;94693.63;5042412;28;20200;-75
2023/05/01 05:36:45;;;;;;;7.85;6.70;;;;;;;24.81;39.42;94690.16;5047422;28;20208;-73
2023/05/01 05:39:12;;;;;;;7.80;6.57;;;;;;;23.36;41.63;94698.06;5039634;28;20511;-74
2023/05/01 05:41:39;;;;;;;9.32;6.93;;;;;;;23.31;41.72;94699.28;5043177;28;20697;-72
2023/05/01 05:44:06;;;;;;;8.57;6.75;;;;;;;24.96;39.53;94690.78;5044967;28;20199;-73
2023/05/01 05:46:33;;;;;;;8.02;5.88;;;;;;;25.49;38.55;94687.94;5040820;28;20208;-74
2023/05/01 05:49:01;;;;;;;7.63;5.95;;;;;;;25.02;38.75;94684.31;5043726;28;20231;-73
2023/05/01 05:51:28;;;;;;;9.13;6.10;;;;;;;25.74;37.93;94695.09;5043926;28;20247;-75
2023/05/01 05:53:54;;;;;;;10.05;6.05;;;;;;;24.62;39.16;94694.38;5044463;28;20200;-73
2023/05/01 05:56:22;;;;;;;8.27;6.43;;;;;;;23.55;41.19;94702.25;5046195;28;20206;-74
2023/05/01 05:58:48;;;;;;;10.15;5.93;;;;;;;25.02;38.83;94700.19;5044934;28;20211;-76
2023/05/01 06:01:16;;;;;;;7.65;5.90;;;;;;;26.12;36.53;94699.13;5047212;28;20223;-74
2023/05/01 06:03:45;;;;;;;8.40;5.93;;;;;;;25.00;38.54;94702.59;5040085;28;20267;-75
2023/05/01 06:06:13;;;;;;;7.70;5.88;;;;;;;24.12;41.03;94705.25;5047504;28;20287;-76
2023/05/01 06:08:40;;;;;;;9.18;6.30;;;;;;;25.12;38.95;94710.34;5047162;28;20246;-75
2023/05/01 06:11:08;;;;;;;7.25;5.72;;;;;;;26.11;37.49;94703.13;5048080;28;20204;-75
2023/05/01 06:13:35;;;;;;;6.07;5.20;;;;;;;26.80;36.63;94698.56;5045237;28;20203;-75
2023/05/01 06:16:02;;;;;;;8.73;6.60;;;;;;;26.59;36.53;94706.59;5046540;28;20286;-76
2023/05/01 06:18:29;;;;;;;7.78;5.68;;;;;;;26.37;36.55;94709.03;5046894;28;20271;-73
2023/05/01 06:20:57;;;;;;;7.20;6.18;;;;;;;26.51;36.61;94700.41;5048691;28;20204;-75
2023/05/01 06:23:25;;;;;;;6.35;5.70;;;;;;;25.18;37.62;94714.19;5049380;28;20199;-75
2023/05/01 06:25:52;;;;;;;6.78;5.63;;;;;;;25.96;37.32;94707.41;5045561;28;20226;-74
2023/05/01 06:28:18;;;;;;;6.93;6.05;;;;;;;25.80;36.95;94707.28;5046307;28;20204;-74
2023/05/01 06:30:45;;;;;;;9.07;6.35;;;;;;;25.10;38.00;94713.53;5045340;28;20239;-73
2023/05/01 06:33:12;;;;;;;7.43;5.90;;;;;;;24.53;39.47;94719.03;5041148;28;20220;-74
2023/05/01 06:35:39;;;;;;;6.78;5.90;;;;;;;23.48;41.10;94721.66;5044993;28;20806;-77
2023/05/01 06:38:06;;;;;;;8.25;6.28;;;;;;;23.83;41.49;94721.38;5042040;28;20759;-74
2023/05/01 06:40:34;;;;;;;7.85;6.20;;;;;;;25.39;38.83;94713.88;5042479;28;20657;-73
2023/05/01 06:43:01;;;;;;;7.10;6.10;;;;;;;25.86;37.51;94713.91;5041078;28;20204;-73
2023/05/01 06:45:28;;;;;;;9.27;6.57;;;;;;;25.75;37.15;94718.84;5040933;28;20203;-73
2023/05/01 06:47:55;;;;;;;7.72;5.82;;;;;;;25.46;37.74;94708.19;5042783;28;20212;-74
2023/05/01 06:50:22;;;;;;;6.78;6.10;;;;;;;24.51;39.40;94721.44;5041421;28;20300;-74
2023/05/01 06:52:48;;;;;;;8.82;5.55;;;;;;;24.63;39.64;94718.09;5043540;28;20222;-73
2023/05/01 06:55:15;;;;;;;6.20;5.60;;;;;;;26.33;37.42;94713.84;5044554;28;20784;-75
2023/05/01 06:57:43;;;;;;;8.07;6.30;;;;;;;27.30;34.81;94711.41;5044456;28;20244;-75
2023/05/01 07:00:15;;;;;;;8.13;6.20;;;;;;;25.76;37.14;94723.22;5044962;28;20200;-75
2023/05/01 07:02:42;;;;;;;11.05;5.95;;;;;;;26.73;36.06;94715.41;5045001;28;20258;-75
2023/05/01 07:05:09;;;;;;;9.57;6.07;;;;;;;26.54;35.87;94714.19;5044409;28;20200;-74
2023/05/01 07:07:36;;;;;;;8.57;5.90;;;;;;;25.62;37.80;94715.13;5043905;28;20669;-74
2023/05/01 07:10:03;;;;;;;9.60;6.00;;;;;;;24.34;39.30;94716.88;5047032;28;20223;-75
2023/05/01 07:12:30;;;;;;;7.18;6.18;;;;;;;24.99;38.08;94712.91;5047160;28;20208;-78
2023/05/01 07:14:58;;;;;;;5.45;4.20;;;;;;;23.66;39.75;94722.31;5050951;28;20729;-76
2023/05/01 07:17:25;;;;;;;5.50;5.00;;;;;;;24.16;39.99;94741.22;5042829;28;20195;-74
2023/05/01 07:19:52;;;;;;;6.53;5.63;;;;;;;23.86;40.23;94726.09;5041420;28;20249;-75
2023/05/01 07:22:19;;;;;;;6.80;5.13;;;;;;;25.32;37.97;94727.84;5044810;28;20720;-75
2023/05/01 07:24:46;;;;;;;7.40;5.35;;;;;;;25.60;37.32;94728.59;5053204;28;20272;-74
2023/05/01 07:27:15;;;;;;;8.43;5.55;;;;;;;25.71;37.36;94727.25;5061000;28;20210;-74
2023/05/01 07:29:43;;;;;;;5.13;3.97;;;;;;;25.24;36.61;94729.16;5058135;28;20273;-73
2023/05/01 07:32:11;;;;;;;5.90;4.30;;;;;;;23.22;40.90;94737.66;5050203;28;20199;-78
2023/05/01 07:34:38;;;;;;;8.25;5.03;;;;;;;24.69;38.57;94726.75;5045789;28;20290;-74
2023/05/01 07:37:05;;;;;;;7.88;5.75;;;;;;;25.03;37.68;94733.03;5043381;28;20208;-74
2023/05/01 07:39:32;;;;;;;8.73;5.72;;;;;;;23.61;40.31;94736.59;5041365;28;20636;-76
2023/05/01 07:41:58;;;;;;;6.50;5.57;;;;;;;23.95;40.23;94729.16;5040869;28;20204;-75
2023/05/01 07:44:25;;;;;;;11.10;6.10;;;;;;;22.57;43.31;94739.19;5043188;28;20203;-76
2023/05/01 07:46:52;;;;;;;12.68;6.78;;;;;;;22.79;43.44;94731.63;5037488;28;20208;-74
2023/05/01 07:49:22;;;;;;;10.63;6.82;;;;;;;22.82;43.41;94733.59;5041371;28;20253;-74
2023/05/01 07:51:49;;;;;;;9.77;7.07;;;;;;;21.86;45.26;94742.16;5034640;28;20199;-75
2023/05/01 07:54:20;;;;;;;9.30;7.50;;;;;;;20.48;47.68;94742.78;5039129;28;20315;-75
2023/05/01 07:56:47;;;;;;;9.77;6.82;;;;;;;21.81;45.47;94739.78;5040286;28;20210;-73
2023/05/01 07:59:15;;;;;;;11.50;6.30;;;;;;;20.92;46.41;94741.69;5045496;28;20196;-75
2023/05/01 08:01:42;;;;;;;10.68;6.93;;;;;;;20.76;46.78;94735.78;5055861;28;20212;-75
2023/05/01 08:04:09;;;;;;;12.05;6.28;;;;;;;21.04;45.88;94741.34;5044590;28;20200;-77
2023/05/01 08:06:37;;;;;;;9.00;5.93;;;;;;;20.88;45.66;94738.19;5044773;28;20697;-76
2023/05/01 08:09:04;;;;;;;10.10;6.20;;;;;;;21.04;46.51;94741.34;5043353;28;20200;-76
2023/05/01 08:11:32;;;;;;;8.05;6.53;;;;;;;20.77;46.80;94749.19;5050175;28;20235;-76
2023/05/01 08:13:59;;;;;;;7.78;5.38;;;;;;;20.40;46.22;94735.66;5041744;28;20215;-76
2023/05/01 08:16:26;;;;;;;11.18;6.07;;;;;;;20.35;47.57;94749.78;5044891;28;20203;-79
2023/05/01 08:18:52;;;;;;;9.32;6.53;;;;;;;20.03;48.19;94748.84;5044580;28;20273;-76
2023/05/01 08:21:19;;;;;;;9.65;5.75;;;;;;;20.06;47.46;94753.56;5045219;28;20227;-75
2023/05/01 08:23:49;;;;;;;5.25;4.07;;;;;;;20.11;46.49;94742.19;5045542;28;20747;-77
2023/05/01 08:26:17;;;;;;;6.05;5.07;;;;;;;19.76;47.88;94748.28;5033410;28;20257;-76
2023/05/01 08:28:44;;;;;;;6.47;4.80;;;;;;;19.54;47.64;94749.31;5043168;28;20205;-78
2023/05/01 08:31:11;;;;;;;6.00;3.90;;;;;;;19.82;46.27;94744.78;5051709;28;20655;-77
2023/05/01 08:33:40;;;;;;;4.18;3.45;;;;;;;20.32;44.95;94745.06;5051575;28;20622;-75
2023/05/01 08:36:08;;;;;;;3.05;2.40;;;;;;;20.81;42.77;94741.69;5044843;28;20208;-76
2023/05/01 08:38:35;;;;;;;5.50;3.55;;;;;;;20.84;43.71;94743.66;5044459;28;20208;-74
2023/05/01 08:41:04;;;;;;;6.78;3.88;;;;;;;21.07;44.77;94737.78;5044972;28;20289;-76
2023/05/01 08:43:32;;;;;;;6.38;4.68;;;;;;;20.98;44.26;94731.09;5045292;28;20211;-76
2023/05/01 08:46:00;;;;;;;8.63;4.50;;;;;;;21.72;43.27;94731.16;5044606;28;20204;-75
2023/05/01 08:48:28;;;;;;;6.30;4.18;;;;;;;21.64;43.93;94729.56;5044372;28;20794;-76
2023/05/01 08:50:57;;;;;;;4.97;4.10;;;;;;;20.76;44.43;94733.03;5045030;28;20227;-81
2023/05/01 08:53:25;;;;;;;7.93;4.85;;;;;;;20.89;44.54;94731.50;5045576;28;20212;-77
2023/05/01 08:55:53;;;;;;;6.82;4.53;;;;;;;19.81;46.14;94729.47;5045385;28;20678;-76
2023/05/01 08:58:25;;;;;;;3.55;2.80;;;;;;;19.81;45.16;94732.22;5045423;28;20196;-77
2023/05/01 09:00:55;;;;;;;4.63;3.40;;;;;;;19.38;46.41;94741.31;5049059;28;20204;-75
2023/05/01 09:03:22;;;;;;;5.72;4.03;;;;;;;19.25;48.18;94734.53;5061493;28;20240;-76
2023/05/01 09:05:50;;;;;;;6.60;4.65;;;;;;;19.25;49.00;94737.28;5047996;28;20207;-77
2023/05/01 09:08:17;;;;;;;6.68;3.97;;;;;;;19.78;48.03;94729.44;5052378;28;20276;-76
2023/05/01 09:10:48;;;;;;;7.45;3.90;;;;;;;20.10;47.70;94726.84;5057825;28;20330;-76
2023/05/01 09:13:14;;;;;;;4.72;3.72;;;;;;;20.10;47.68;94721.34;5048763;28;20272;-77
2023/05/01 09:15:43;;;;;;;6.40;3.85;;;;;;;20.49;45.43;94722.34;5048141;28;20798;-76
2023/05/01 09:18:11;;;;;;;6.90;3.33;;;;;;;20.16;45.18;94725.31;5048334;28;20211;-77
2023/05/01 09:20:38;;;;;;;5.05;3.45;;;;;;;20.22;44.61;94729.28;5048331;28;20215;-76
2023/05/01 09:23:05;;;;;;;5.22;3.00;;;;;;;20.31;46.17;94715.94;5053699;28;20261;-76
2023/05/01 09:25:32;;;;;;;4.75;2.90;;;;;;;19.23;45.61;94734.91;5055845;28;20518;-75
2023/05/01 09:27:58;;;;;;;3.13;2.33;;;;;;;20.11;45.37;94725.69;5061818;28;20203;-76
2023/05/01 09:30:36;;;;;;;3.40;2.70;;;;;;;20.12;43.98;94730.78;5048781;28;20239;-75
2023/05/01 09:33:12;;;;;;;3.80;3.00;;;;;;;19.49;46.80;94742.19;5048309;28;20215;-76
2023/05/01 09:35:52;;;;;;;6.95;3.30;;;;;;;19.75;46.68;94725.50;5062058;28;20207;-76
2023/05/01 09:38:21;;;;;;;4.55;2.85;;;;;;;19.93;47.01;94727.56;5048227;28;20302;-76
2023/05/01 09:40:48;;;;;;;7.57;3.17;;;;;;;19.98;47.47;94716.97;5047865;28;20616;-76
2023/05/01 09:43:23;;;;;;;7.90;3.42;;;;;;;20.97;46.38;94713.00;5048610;28;20211;-77
2023/05/01 09:46:00;;;;;;;4.55;3.13;;;;;;;20.74;44.09;94721.63;5047798;28;20256;-75
2023/05/01 09:48:28;;;;;;;5.53;3.47;;;;;;;20.86;43.99;94724.00;5048385;28;20326;-77
2023/05/01 09:50:55;;;;;;;5.85;3.65;;;;;;;21.40;44.27;94714.63;5036227;28;20242;-76
2023/05/01 09:53:36;;;;;;;6.70;3.55;;;;;;;20.50;47.83;94710.13;5048329;28;20211;-76
2023/05/01 09:56:03;;;;;;;6.68;3.83;;;;;;;20.29;46.30;94712.78;5058688;28;20299;-75
2023/05/01 09:58:30;;;;;;;5.88;2.90;;;;;;;20.58;45.59;94709.00;5050815;28;20199;-75
2023/05/01 10:00:59;;;;;;;3.45;3.15;;;;;;;20.31;46.86;94721.47;5050260;28;20215;-76
2023/05/01 10:03:25;;;;;;;3.67;3.00;;;;;;;20.28;48.95;94713.97;5049817;28;20231;-76
2023/05/01 10:05:55;;;;;;;3.22;2.90;;;;;;;20.26;47.74;94710.81;5055241;28;20204;-77
2023/05/01 10:08:23;;;;;;;4.97;3.13;;;;;;;20.28;48.39;94722.22;5056105;28;20208;-75
2023/05/01 10:11:01;;;;;;;5.60;3.25;;;;;;;19.92;47.83;94712.25;5057869;28;20289;-76
2023/05/01 10:13:28;;;;;;;3.90;3.10;;;;;;;19.90;47.79;94711.84;5046059;28;20210;-77
2023/05/01 10:15:55;;;;;;;3.25;2.95;;;;;;;19.77;47.39;94714.13;5056518;28;20208;-79
2023/05/01 10:18:22;;;;;;;3.53;3.08;;;;;;;18.90;49.44;94722.06;5062831;28;20200;-78
2023/05/01 10:20:50;;;;;;;2.67;2.25;;;;;;;19.48;49.46;94702.13;5062294;28;20300;-78
2023/05/01 10:23:18;;;;;;;5.55;2.95;;;;;;;19.98;45.03;94707.94;5048387;28;20562;-78
2023/05/01 10:25:48;;;;;;;2.80;2.30;;;;;;;19.84;46.14;94703.94;5048502;28;20207;-78
2023/05/01 10:28:15;;;;;;;3.63;2.60;;;;;;;19.62;47.27;94699.50;5049218;28;20287;-78
2023/05/01 10:30:43;;;;;;;2.92;2.60;;;;;;;19.26;47.81;94711.41;5048460;28;20580;-77
2023/05/01 10:33:13;;;;;;;3.15;2.53;;;;;;;18.86;47.76;94714.97;5049387;28;20653;-76
2023/05/01 10:35:44;;;;;;;4.25;2.50;;;;;;;19.06;46.96;94708.88;5047084;28;20215;-76
2023/05/01 10:38:19;;;;;;;2.97;2.47;;;;;;;19.71;45.93;94699.94;5046787;28;20674;-76
2023/05/01 10:40:50;;;;;;;3.28;1.75;;;;;;;19.73;42.51;94697.59;5046831;28;20293;-77
2023/05/01 10:43:19;;;;;;;2.40;2.03;;;;;;;20.10;42.13;94707.59;5058914;28;20210;-78
2023/05/01 10:45:47;;;;;;;2.08;1.88;;;;;;;19.38;43.41;94716.59;5047877;28;20662;-75
2023/05/01 10:48:52;;;;;;;3.35;2.33;;;;;;;19.36;44.85;94705.19;5046980;28;20228;-77
2023/05/01 10:51:21;;;;;;;2.83;2.22;;;;;;;19.55;44.62;94702.19;5030803;28;20223;-79
2023/05/01 10:53:50;;;;;;;5.53;2.35;;;;;;;19.61;44.57;94697.13;5046657;28;20204;-76
2023/05/01 10:56:43;;;;;;;3.88;2.10;;;;;;;19.64;44.56;94705.41;5046851;28;20514;-76
2023/05/01 10:59:11;;;;;;;4.63;2.90;;;;;;;19.61;44.80;94708.13;5046584;28;20334;-75
2023/05/01 11:01:39;;;;;;;3.60;2.50;;;;;;;19.51;45.34;94704.94;5046268;28;20222;-77
2023/05/01 11:04:08;;;;;;;4.32;2.50;;;;;;;19.56;46.02;94698.28;5046376;28;20212;-77
2023/05/01 11:06:36;;;;;;;5.22;2.78;;;;;;;19.78;46.18;94697.25;5046674;28;20307;-77
2023/05/01 11:09:36;;;;;;;3.30;2.70;;;;;;;19.69;47.28;94707.78;5046847;28;20374;-76
2023/05/01 11:12:05;;;;;;;4.82;2.92;;;;;;;19.23;48.17;94706.66;5046777;28;20600;-78
2023/05/01 11:15:04;;;;;;;2.38;2.08;;;;;;;19.36;48.39;94711.47;5046513;28;20211;-77
2023/05/01 11:17:45;;;;;;;2.70;2.40;;;;;;;19.38;47.84;94708.34;5059415;28;20543;-77
2023/05/01 11:20:13;;;;;;;4.20;2.80;;;;;;;19.11;47.86;94716.78;5035266;28;20212;-76
2023/05/01 11:22:44;;;;;;;2.75;2.35;;;;;;;19.08;48.21;94722.22;5045945;28;20605;-75
2023/05/01 11:25:19;;;;;;;3.35;1.90;;;;;;;18.69;48.27;94716.38;5046447;28;20290;-76
2023/05/01 11:27:49;;;;;;;2.88;2.22;;;;;;;18.74;48.03;94705.81;5046205;28;20207;-77
2023/05/01 11:30:17;;;;;;;2.38;2.17;;;;;;;19.15;46.95;94706.56;5046499;28;20269;-77
2023/05/01 11:32:45;;;;;;;2.40;1.90;;;;;;;19.52;45.67;94705.72;5045925;28;20265;-77
2023/05/01 11:35:18;;;;;;;3.05;2.20;;;;;;;19.79;46.05;94707.06;5046137;28;20273;-77
2023/05/01 11:37:45;;;;;;;3.33;2.42;;;;;;;20.38;43.97;94701.44;5045826;28;20757;-77
2023/05/01 11:40:23;;;;;;;3.10;2.05;;;;;;;20.51;44.06;94692.44;5045966;28;20249;-76